Time;durP1;ratioP1;P1;durP2;ratioP2;P2;SDS_P1;SDS_P2;PMS_P1;PMS_P2;Temp;Humidity;BMP_temperature;BMP_pressure;BME280_temperature;BME280_humidity;BME280_pressure;Samples;Min_cycle;Max_cycle;Signal;HPM_P1;HPM_P2
2022/12/19 00:00:27;;;;;;;36.90;18.77;;;2.40;99.90;;;;;;5068893;28;20039;-71
2022/12/19 00:02:52;;;;;;;45.20;16.90;;;2.40;99.90;;;;;;5058607;28;20025;-71
2022/12/19 00:05:18;;;;;;;35.65;18.95;;;2.40;99.90;;;;;;5061574;28;20028;-71
2022/12/19 00:07:47;;;;;;;53.58;21.98;;;2.40;99.90;;;;;;5065772;28;20104;-71
2022/12/19 00:10:13;;;;;;;48.30;22.45;;;2.40;99.90;;;;;;5055483;28;20051;-71
2022/12/19 00:12:38;;;;;;;35.63;17.10;;;2.40;99.90;;;;;;5066975;28;20033;-71
2022/12/19 00:15:04;;;;;;;37.55;17.10;;;2.50;99.90;;;;;;5063445;28;20020;-70
2022/12/19 00:17:31;;;;;;;50.38;20.23;;;2.40;99.90;;;;;;5063837;28;20037;-72
2022/12/19 00:19:57;;;;;;;37.60;18.95;;;2.50;99.90;;;;;;5071608;28;20024;-71
2022/12/19 00:22:23;;;;;;;45.72;19.58;;;2.50;99.90;;;;;;5059214;28;20033;-70
2022/12/19 00:24:48;;;;;;;42.97;17.63;;;2.50;99.90;;;;;;5069067;28;20021;-70
2022/12/19 00:27:14;;;;;;;46.10;19.67;;;2.50;99.90;;;;;;5065056;28;20108;-70
2022/12/19 00:29:40;;;;;;;44.83;18.70;;;2.50;99.90;;;;;;5062300;28;20060;-70
2022/12/19 00:32:05;;;;;;;29.85;13.85;;;2.60;99.90;;;;;;5071997;28;20471;-70
2022/12/19 00:34:31;;;;;;;43.53;17.83;;;2.60;99.90;;;;;;5058918;28;20028;-70
2022/12/19 00:36:56;;;;;;;43.38;19.50;;;2.60;99.90;;;;;;5067847;28;20070;-70
2022/12/19 00:39:22;;;;;;;31.42;14.20;;;2.60;99.90;;;;;;5065628;28;20459;-70
2022/12/19 00:41:48;;;;;;;36.50;17.58;;;2.60;99.90;;;;;;5060437;28;20520;-70
2022/12/19 00:44:16;;;;;;;40.45;16.92;;;2.60;99.90;;;;;;5071353;28;20028;-70
2022/12/19 00:46:42;;;;;;;35.72;14.48;;;2.60;99.90;;;;;;5060417;28;20492;-68
2022/12/19 00:49:08;;;;;;;51.20;21.40;;;2.70;99.90;;;;;;5066013;28;20041;-70
2022/12/19 00:51:35;;;;;;;57.35;20.85;;;2.70;99.90;;;;;;5067415;28;20119;-70
2022/12/19 00:54:01;;;;;;;45.63;17.90;;;2.80;99.90;;;;;;5058468;28;20400;-70
2022/12/19 00:56:30;;;;;;;48.40;19.65;;;2.80;99.90;;;;;;5071166;28;20025;-70
2022/12/19 00:58:56;;;;;;;36.65;16.52;;;2.80;99.90;;;;;;5061981;28;20024;-70
2022/12/19 01:01:28;;;;;;;41.35;19.55;;;2.80;99.90;;;;;;5064038;28;20017;-70
2022/12/19 01:03:56;;;;;;;45.00;18.27;;;2.80;99.90;;;;;;5069996;28;20024;-70
2022/12/19 01:06:21;;;;;;;42.40;19.13;;;2.80;99.90;;;;;;5057945;28;20025;-69
2022/12/19 01:08:47;;;;;;;32.33;15.45;;;2.90;99.90;;;;;;5068697;28;20032;-71
2022/12/19 01:11:13;;;;;;;42.72;19.65;;;2.90;99.90;;;;;;5064012;28;20024;-70
2022/12/19 01:13:39;;;;;;;30.60;13.90;;;2.90;99.90;;;;;;5060253;28;20469;-70
2022/12/19 01:16:11;;;;;;;41.67;18.52;;;2.90;99.90;;;;;;5070817;28;20027;-70
2022/12/19 01:18:37;;;;;;;42.65;19.52;;;2.90;99.90;;;;;;5058752;28;20013;-69
2022/12/19 01:21:06;;;;;;;36.92;15.30;;;3.00;99.90;;;;;;5066244;28;20488;-69
2022/12/19 01:23:31;;;;;;;35.70;15.43;;;3.00;99.90;;;;;;5066167;28;20380;-69
2022/12/19 01:25:57;;;;;;;45.35;19.23;;;3.00;99.90;;;;;;5057306;28;20040;-69
2022/12/19 01:28:23;;;;;;;41.42;17.90;;;3.00;99.90;;;;;;5070591;28;20032;-68
2022/12/19 01:30:49;;;;;;;46.65;20.67;;;3.10;99.90;;;;;;5059557;28;20112;-70
2022/12/19 01:33:17;;;;;;;32.33;15.70;;;3.10;99.90;;;;;;5054021;28;20063;-70
2022/12/19 01:35:44;;;;;;;38.28;13.35;;;3.10;99.90;;;;;;5068139;28;20027;-70
2022/12/19 01:38:15;;;;;;;30.23;14.02;;;3.10;99.90;;;;;;5057113;28;20040;-69
2022/12/19 01:40:47;;;;;;;51.55;19.05;;;3.10;99.90;;;;;;5051271;28;20599;-68
2022/12/19 01:43:14;;;;;;;39.63;16.25;;;3.10;99.90;;;;;;5063509;28;20574;-69
2022/12/19 01:45:40;;;;;;;36.83;15.55;;;3.20;99.90;;;;;;5060780;28;20032;-70
2022/12/19 01:48:17;;;;;;;45.83;18.50;;;3.20;99.90;;;;;;5070755;28;20021;-69
2022/12/19 01:50:58;;;;;;;62.60;22.67;;;3.30;99.90;;;;;;5059450;28;20049;-68
2022/12/19 01:53:27;;;;;;;43.38;17.83;;;3.30;99.90;;;;;;5062916;28;20037;-69
2022/12/19 01:55:54;;;;;;;35.10;15.15;;;3.30;99.90;;;;;;5068850;28;20046;-69
2022/12/19 01:58:20;;;;;;;47.45;19.33;;;3.30;99.90;;;;;;5054506;28;20061;-68
2022/12/19 02:00:46;;;;;;;41.95;18.67;;;3.40;99.90;;;;;;5053208;28;20025;-69
2022/12/19 02:03:21;;;;;;;47.10;19.08;;;3.40;99.90;;;;;;5052628;28;20524;-69
2022/12/19 02:05:47;;;;;;;40.55;18.70;;;3.40;99.90;;;;;;5053781;28;20021;-67
2022/12/19 02:08:13;;;;;;;54.47;20.52;;;3.50;99.90;;;;;;5050677;28;20051;-69
2022/12/19 02:10:39;;;;;;;30.10;16.55;;;3.40;99.90;;;;;;5052634;28;20033;-68
2022/12/19 02:13:05;;;;;;;43.22;18.88;;;3.50;99.90;;;;;;5053630;28;20194;-69
2022/12/19 02:15:37;;;;;;;43.55;18.88;;;3.50;99.90;;;;;;5055963;28;20024;-68
2022/12/19 02:18:16;;;;;;;44.58;18.98;;;3.50;99.90;;;;;;5057993;28;20020;-69
2022/12/19 02:21:16;;;;;;;40.05;17.88;;;3.60;99.90;;;;;;5064795;28;20029;-68
2022/12/19 02:23:54;;;;;;;49.58;16.27;;;3.70;99.90;;;;;;5057079;28;20028;-69
2022/12/19 02:26:57;;;;;;;32.67;14.95;;;3.70;99.90;;;;;;5057351;28;20043;-68
2022/12/19 02:30:00;;;;;;;35.70;16.13;;;3.70;99.90;;;;;;5060382;28;20435;-71
2022/12/19 02:32:33;;;;;;;29.70;12.68;;;3.80;99.90;;;;;;5037397;28;20442;-70
2022/12/19 02:35:10;;;;;;;45.08;19.40;;;3.80;99.90;;;;;;5056777;28;20025;-70
2022/12/19 02:37:46;;;;;;;38.00;14.93;;;3.80;99.90;;;;;;5066110;28;20025;-70
2022/12/19 02:40:18;;;;;;;45.15;17.90;;;3.90;99.90;;;;;;5056198;28;20032;-70
2022/12/19 02:42:50;;;;;;;33.58;15.63;;;3.90;99.90;;;;;;5066538;28;20082;-70
2022/12/19 02:45:18;;;;;;;33.95;15.02;;;4.00;99.90;;;;;;5063435;28;20546;-70
2022/12/19 02:47:43;;;;;;;47.65;19.42;;;4.00;99.90;;;;;;5059966;28;20465;-70
2022/12/19 02:50:11;;;;;;;44.92;17.45;;;4.10;99.90;;;;;;5063081;28;20056;-69
2022/12/19 02:52:36;;;;;;;44.22;18.65;;;4.10;99.90;;;;;;5067808;28;20100;-68
2022/12/19 02:55:08;;;;;;;57.47;16.95;;;4.10;99.90;;;;;;5061100;28;20113;-69
2022/12/19 02:58:12;;;;;;;45.65;17.85;;;4.20;99.90;;;;;;5059772;28;20463;-68
2022/12/19 03:00:55;;;;;;;34.85;15.63;;;4.20;99.90;;;;;;5042391;28;20055;-70
2022/12/19 03:03:36;;;;;;;38.35;16.77;;;4.30;99.90;;;;;;5059169;28;20025;-69
2022/12/19 03:06:20;;;;;;;38.27;15.87;;;4.30;99.90;;;;;;5051158;28;20047;-70
2022/12/19 03:09:00;;;;;;;47.65;17.80;;;4.30;99.90;;;;;;5066050;28;20063;-69
2022/12/19 03:11:33;;;;;;;28.23;11.63;;;4.30;99.90;;;;;;5064298;28;20419;-70
2022/12/19 03:14:06;;;;;;;35.25;15.10;;;4.30;99.90;;;;;;5055631;28;20495;-69
2022/12/19 03:16:35;;;;;;;37.95;17.30;;;4.30;99.90;;;;;;5041514;28;20495;-69
2022/12/19 03:19:01;;;;;;;31.75;14.23;;;4.30;99.90;;;;;;5058589;28;20035;-69
2022/12/19 03:21:40;;;;;;;25.38;13.77;;;4.40;99.90;;;;;;5065138;28;20024;-69
2022/12/19 03:24:08;;;;;;;33.60;14.05;;;4.40;99.90;;;;;;5055550;28;20086;-70
2022/12/19 03:26:40;;;;;;;31.67;12.27;;;4.40;99.90;;;;;;5067472;28;20082;-70
2022/12/19 03:29:33;;;;;;;28.83;12.60;;;4.40;99.90;;;;;;5061416;28;20032;-70
2022/12/19 03:32:04;;;;;;;37.20;14.70;;;4.40;99.90;;;;;;5055850;28;20471;-70
2022/12/19 03:35:00;;;;;;;32.22;15.32;;;4.50;99.90;;;;;;5040536;28;20036;-69
2022/12/19 03:37:32;;;;;;;30.83;14.73;;;4.50;99.90;;;;;;5072548;28;20032;-70
2022/12/19 03:40:06;;;;;;;35.75;14.88;;;4.50;99.90;;;;;;5055620;28;20035;-70
2022/12/19 03:45:29;;;;;;;36.15;15.85;;;4.60;99.90;;;;;;5052347;28;20476;-70
2022/12/19 03:48:05;;;;;;;29.60;12.63;;;4.60;99.90;;;;;;5045376;28;20037;-70
2022/12/19 03:50:50;;;;;;;30.15;12.85;;;4.60;99.90;;;;;;5047780;28;20056;-70
2022/12/19 03:53:55;;;;;;;34.75;14.60;;;4.70;99.90;;;;;;5056339;28;20049;-71
2022/12/19 03:56:30;;;;;;;32.65;14.45;;;4.70;99.90;;;;;;5056246;28;20477;-69
2022/12/19 03:59:29;;;;;;;30.42;13.13;;;4.80;99.90;;;;;;5056100;28;20037;-70
2022/12/19 04:01:57;;;;;;;23.20;10.43;;;4.80;99.90;;;;;;5053239;28;20124;-70
2022/12/19 04:04:23;;;;;;;17.75;9.07;;;4.80;99.90;;;;;;5056073;28;20036;-70
2022/12/19 04:06:50;;;;;;;30.00;12.70;;;4.90;99.90;;;;;;5056172;28;20021;-70
2022/12/19 04:09:17;;;;;;;30.73;12.82;;;4.90;99.90;;;;;;5055992;28;20029;-70
2022/12/19 04:11:49;;;;;;;27.13;12.73;;;4.90;99.90;;;;;;5055732;28;20111;-70
2022/12/19 04:14:22;;;;;;;23.30;10.77;;;4.90;99.90;;;;;;5055973;28;20037;-70
2022/12/19 04:17:14;;;;;;;28.98;11.80;;;5.00;99.90;;;;;;5056071;28;20052;-70
2022/12/19 04:20:01;;;;;;;26.98;12.23;;;5.00;99.90;;;;;;5047552;28;20025;-70
2022/12/19 04:22:32;;;;;;;18.60;8.05;;;5.10;99.90;;;;;;5035855;28;20125;-70
2022/12/19 04:25:03;;;;;;;25.30;11.35;;;5.00;99.90;;;;;;5035774;28;20041;-70
2022/12/19 04:27:32;;;;;;;32.10;12.73;;;5.10;99.90;;;;;;5035852;28;20029;-70
2022/12/19 04:30:01;;;;;;;33.65;12.52;;;5.10;99.90;;;;;;5035882;28;20461;-70
2022/12/19 04:32:31;;;;;;;15.57;7.47;;;5.20;99.90;;;;;;5035495;28;20033;-70
2022/12/19 04:35:01;;;;;;;25.73;9.63;;;5.20;99.90;;;;;;5035347;28;20037;-70
2022/12/19 04:37:28;;;;;;;22.48;10.40;;;5.20;99.90;;;;;;5035452;28;20034;-70
2022/12/19 04:39:53;;;;;;;19.45;9.45;;;5.30;99.90;;;;;;5035317;28;20064;-70
2022/12/19 04:42:19;;;;;;;22.65;10.88;;;5.30;99.90;;;;;;5041409;28;20461;-70
2022/12/19 04:44:44;;;;;;;26.63;10.15;;;5.40;99.90;;;;;;5055174;28;20033;-70
2022/12/19 04:47:10;;;;;;;26.50;10.80;;;5.40;99.90;;;;;;5055315;28;20025;-70
2022/12/19 04:49:36;;;;;;;17.77;9.40;;;5.50;99.90;;;;;;5054967;28;20405;-70
2022/12/19 04:52:02;;;;;;;32.67;12.13;;;5.50;99.90;;;;;;5055201;28;20063;-70
2022/12/19 04:54:27;;;;;;;21.80;9.98;;;5.50;99.90;;;;;;5055187;28;20037;-70
2022/12/19 04:56:53;;;;;;;20.25;10.30;;;5.60;99.90;;;;;;5054901;28;20499;-70
2022/12/19 04:59:18;;;;;;;20.98;9.68;;;5.60;99.90;;;;;;5054937;28;20027;-70
2022/12/19 05:01:44;;;;;;;23.52;10.38;;;5.70;99.90;;;;;;5055245;28;20048;-70
2022/12/19 05:04:10;;;;;;;29.88;10.10;;;5.70;99.90;;;;;;5055008;28;20047;-70
2022/12/19 05:06:36;;;;;;;26.67;12.27;;;5.80;99.90;;;;;;5054924;28;20032;-70
2022/12/19 05:09:01;;;;;;;22.77;11.23;;;5.80;99.90;;;;;;5054714;28;20033;-70
2022/12/19 05:11:27;;;;;;;24.27;10.52;;;5.80;99.90;;;;;;5055136;28;20036;-71
2022/12/19 05:13:52;;;;;;;18.95;8.18;;;5.90;99.90;;;;;;5055323;28;20479;-70
2022/12/19 05:16:18;;;;;;;18.73;9.27;;;5.90;99.90;;;;;;5055112;28;20511;-70
2022/12/19 05:18:43;;;;;;;26.15;10.73;;;6.00;99.90;;;;;;5046828;28;20476;-70
2022/12/19 05:21:09;;;;;;;20.02;9.68;;;6.00;99.90;;;;;;5036587;28;20025;-70
2022/12/19 05:23:36;;;;;;;42.15;14.35;;;6.10;99.90;;;;;;5034880;28;20083;-70
2022/12/19 05:26:03;;;;;;;25.38;11.55;;;6.10;99.90;;;;;;5034979;28;20452;-70
2022/12/19 05:28:29;;;;;;;23.75;10.65;;;6.10;99.90;;;;;;5034909;28;20033;-70
2022/12/19 05:31:05;;;;;;;20.67;10.10;;;6.20;99.90;;;;;;5034627;28;20033;-70
2022/12/19 05:33:31;;;;;;;17.65;7.78;;;6.20;99.90;;;;;;5034190;28;20041;-70
2022/12/19 05:35:56;;;;;;;18.48;8.57;;;6.20;99.90;;;;;;5034829;28;20424;-70
2022/12/19 05:38:22;;;;;;;21.35;11.25;;;6.30;99.90;;;;;;5034646;28;20030;-70
2022/12/19 05:40:47;;;;;;;19.20;9.65;;;6.30;99.90;;;;;;5034617;28;20421;-69
2022/12/19 05:43:13;;;;;;;18.70;8.07;;;6.40;99.90;;;;;;5034645;28;20034;-70
2022/12/19 05:45:39;;;;;;;24.08;10.73;;;6.40;99.90;;;;;;5034419;28;20021;-70
2022/12/19 05:48:05;;;;;;;25.00;9.80;;;6.40;99.90;;;;;;5034115;28;20032;-70
2022/12/19 05:50:30;;;;;;;19.02;8.32;;;6.50;99.90;;;;;;5034317;28;20053;-70
2022/12/19 05:52:56;;;;;;;22.80;9.70;;;6.50;99.90;;;;;;5034673;28;20362;-70
2022/12/19 05:55:21;;;;;;;18.30;9.18;;;6.50;99.90;;;;;;5034217;28;20033;-70
2022/12/19 05:57:47;;;;;;;27.13;13.88;;;6.60;99.90;;;;;;5034186;28;20431;-69
2022/12/19 06:00:13;;;;;;;21.20;10.95;;;6.60;99.90;;;;;;5034331;28;20479;-71
2022/12/19 06:02:39;;;;;;;17.25;8.13;;;6.70;99.90;;;;;;5033829;28;20033;-70
2022/12/19 06:05:05;;;;;;;28.48;12.23;;;6.70;99.90;;;;;;5034128;28;20453;-69
2022/12/19 06:07:30;;;;;;;54.70;14.27;;;6.70;99.90;;;;;;5034021;28;20025;-69
2022/12/19 06:09:56;;;;;;;19.17;8.88;;;6.80;99.90;;;;;;5033975;28;20032;-68
2022/12/19 06:12:22;;;;;;;28.65;13.02;;;6.80;99.90;;;;;;5033458;28;20068;-69
2022/12/19 06:14:48;;;;;;;24.67;13.18;;;6.90;99.90;;;;;;5033700;28;20100;-71
2022/12/19 06:17:13;;;;;;;26.88;12.52;;;6.90;99.90;;;;;;5035496;28;20029;-68
2022/12/19 06:19:39;;;;;;;17.75;9.45;;;6.90;99.90;;;;;;5043793;28;20362;-68
2022/12/19 06:22:04;;;;;;;20.45;9.93;;;7.00;99.90;;;;;;5033804;28;20519;-68
2022/12/19 06:24:30;;;;;;;27.80;11.95;;;7.10;99.90;;;;;;5033786;28;20026;-68
2022/12/19 06:26:55;;;;;;;21.90;11.23;;;7.10;99.90;;;;;;5033410;28;20025;-69
2022/12/19 06:29:21;;;;;;;25.05;10.50;;;7.10;99.90;;;;;;5033739;28;20030;-68
2022/12/19 06:31:47;;;;;;;22.27;11.40;;;7.20;99.90;;;;;;5033446;28;20539;-69
2022/12/19 06:34:12;;;;;;;22.85;11.18;;;7.20;99.90;;;;;;5033500;28;20382;-70
2022/12/19 06:36:41;;;;;;;21.27;9.63;;;7.20;99.90;;;;;;5033298;28;20022;-68
2022/12/19 06:39:11;;;;;;;23.98;11.65;;;7.20;99.90;;;;;;5033340;28;20055;-68
2022/12/19 06:44:21;;;;;;;16.42;8.80;;;7.20;99.90;;;;;;5033143;28;20078;-68
2022/12/19 06:46:46;;;;;;;26.50;12.35;;;7.30;99.90;;;;;;5033444;28;20415;-68
2022/12/19 06:49:12;;;;;;;20.17;10.20;;;7.30;99.90;;;;;;5032985;28;20053;-69
2022/12/19 06:51:38;;;;;;;21.85;10.00;;;7.40;99.90;;;;;;5033363;28;20029;-69
2022/12/19 06:54:04;;;;;;;26.80;12.52;;;7.40;99.90;;;;;;5033037;28;20160;-69
2022/12/19 06:56:34;;;;;;;27.80;13.48;;;7.40;99.90;;;;;;5032992;28;20393;-69
2022/12/19 06:59:00;;;;;;;22.73;10.25;;;7.40;99.90;;;;;;5032859;28;20033;-70
2022/12/19 07:01:47;;;;;;;17.85;8.40;;;7.50;99.90;;;;;;5033140;28;20238;-70
2022/12/19 07:04:16;;;;;;;22.88;11.57;;;7.50;99.90;;;;;;5032633;28;20479;-69
2022/12/19 07:06:42;;;;;;;21.77;9.88;;;7.60;99.90;;;;;;5032797;28;20033;-69
2022/12/19 07:09:08;;;;;;;28.17;13.18;;;7.60;99.90;;;;;;5032744;28;20032;-69
2022/12/19 07:11:33;;;;;;;20.33;10.50;;;7.60;99.90;;;;;;5032510;28;20099;-69
2022/12/19 07:13:59;;;;;;;25.73;13.30;;;7.70;99.90;;;;;;5032865;28;20041;-70
2022/12/19 07:16:26;;;;;;;22.67;11.70;;;7.70;99.90;;;;;;5032815;28;20024;-70
2022/12/19 07:18:51;;;;;;;21.17;11.18;;;7.70;99.90;;;;;;5042620;28;20064;-70
2022/12/19 07:21:17;;;;;;;25.33;12.93;;;7.80;99.90;;;;;;5034437;28;20418;-69
2022/12/19 07:23:43;;;;;;;16.05;6.97;;;7.80;99.90;;;;;;5031760;28;20029;-69
2022/12/19 07:26:08;;;;;;;22.08;10.82;;;7.80;99.90;;;;;;5032765;28;20121;-68
2022/12/19 07:28:35;;;;;;;22.50;12.45;;;7.80;99.90;;;;;;5032618;28;20128;-69
2022/12/19 07:31:00;;;;;;;26.23;13.73;;;7.90;99.90;;;;;;5032577;28;20061;-69
2022/12/19 07:33:26;;;;;;;23.05;11.30;;;7.90;99.90;;;;;;5032432;28;20450;-69
2022/12/19 07:35:52;;;;;;;20.10;9.43;;;7.90;99.90;;;;;;5032040;28;20512;-69
2022/12/19 07:38:17;;;;;;;23.60;12.82;;;8.00;99.90;;;;;;5036795;28;20067;-69
2022/12/19 07:40:43;;;;;;;21.35;10.32;;;8.00;99.90;;;;;;5051875;28;20107;-70
2022/12/19 07:43:08;;;;;;;23.38;11.55;;;8.00;99.90;;;;;;5051675;28;20033;-69
2022/12/19 07:45:37;;;;;;;20.15;8.95;;;8.00;99.90;;;;;;5052092;28;20032;-69
2022/12/19 07:48:03;;;;;;;19.10;8.20;;;8.10;99.90;;;;;;5052308;28;20115;-69
2022/12/19 07:50:29;;;;;;;18.98;9.68;;;8.10;99.90;;;;;;5052161;28;20059;-69
2022/12/19 07:52:56;;;;;;;21.42;10.00;;;8.20;99.90;;;;;;5052392;28;20040;-69
2022/12/19 07:55:22;;;;;;;22.15;10.32;;;8.20;99.90;;;;;;5051967;28;20060;-68
2022/12/19 07:57:47;;;;;;;18.30;8.60;;;8.20;99.90;;;;;;5052336;28;20025;-69
2022/12/19 08:00:13;;;;;;;20.83;10.30;;;8.20;99.90;;;;;;5052251;28;20113;-69
2022/12/19 08:02:39;;;;;;;13.75;6.60;;;8.20;99.90;;;;;;5052390;28;20412;-69
2022/12/19 08:05:05;;;;;;;17.80;8.18;;;8.10;99.90;;;;;;5052555;28;20032;-69
2022/12/19 08:07:31;;;;;;;15.35;7.45;;;8.10;99.90;;;;;;5052002;28;20041;-69
2022/12/19 08:09:56;;;;;;;18.00;8.20;;;8.10;99.90;;;;;;5051993;28;20392;-69
2022/12/19 08:12:22;;;;;;;18.42;8.25;;;8.10;99.90;;;;;;5049558;28;20149;-69
2022/12/19 08:14:47;;;;;;;20.00;7.95;;;8.10;99.90;;;;;;5051687;28;20028;-68
2022/12/19 08:17:13;;;;;;;17.40;7.95;;;8.10;99.90;;;;;;5048287;28;20049;-69
2022/12/19 08:19:38;;;;;;;22.30;9.80;;;8.20;99.90;;;;;;5042026;28;20022;-69
2022/12/19 08:22:04;;;;;;;21.10;9.30;;;8.20;99.90;;;;;;5037217;28;20021;-69
2022/12/19 08:24:30;;;;;;;19.42;8.13;;;8.20;99.90;;;;;;5051908;28;20387;-69
2022/12/19 08:26:56;;;;;;;17.42;8.23;;;8.20;99.90;;;;;;5052030;28;20556;-68
2022/12/19 08:29:22;;;;;;;21.25;9.80;;;8.30;99.90;;;;;;5051808;28;20116;-69
2022/12/19 08:31:47;;;;;;;17.52;7.78;;;8.30;99.90;;;;;;5051552;28;20029;-69
2022/12/19 08:34:13;;;;;;;17.17;6.78;;;8.30;99.90;;;;;;5051718;28;20496;-69
2022/12/19 08:36:39;;;;;;;16.75;6.78;;;8.30;99.90;;;;;;5055367;28;20049;-69
2022/12/19 08:39:05;;;;;;;17.63;7.55;;;8.30;99.90;;;;;;5055414;28;20024;-69
2022/12/19 08:41:30;;;;;;;17.52;8.10;;;8.30;99.90;;;;;;5054936;28;20107;-69
2022/12/19 08:43:56;;;;;;;20.10;8.52;;;8.30;99.90;;;;;;5055402;28;20477;-69
2022/12/19 08:46:22;;;;;;;14.68;7.30;;;8.40;99.90;;;;;;5055467;28;20095;-69
2022/12/19 08:48:48;;;;;;;17.23;7.68;;;8.40;99.90;;;;;;5055423;28;20775;-69
2022/12/19 08:51:15;;;;;;;14.32;7.03;;;8.40;99.90;;;;;;5055115;28;20044;-69
2022/12/19 08:53:42;;;;;;;17.58;6.30;;;8.40;99.90;;;;;;5055072;28;20049;-70
2022/12/19 08:56:12;;;;;;;19.13;8.27;;;8.40;99.90;;;;;;5054950;28;20466;-69
2022/12/19 08:58:38;;;;;;;16.92;8.20;;;8.40;99.90;;;;;;5054853;28;20033;-69
2022/12/19 09:01:07;;;;;;;17.63;8.43;;;8.40;99.90;;;;;;5054620;28;20354;-69
2022/12/19 09:03:34;;;;;;;19.20;8.45;;;8.40;99.90;;;;;;5050082;28;20086;-70
2022/12/19 09:06:01;;;;;;;14.00;6.25;;;8.40;99.90;;;;;;5054848;28;20033;-69
2022/12/19 09:08:27;;;;;;;15.40;7.18;;;8.40;99.90;;;;;;5055094;28;20025;-69
2022/12/19 09:11:06;;;;;;;23.67;7.97;;;8.40;99.90;;;;;;5054909;28;20116;-69
2022/12/19 09:13:32;;;;;;;15.40;7.28;;;8.40;99.90;;;;;;5054635;28;20045;-69
2022/12/19 09:16:03;;;;;;;18.20;7.57;;;8.40;99.90;;;;;;5054840;28;20499;-69
2022/12/19 09:18:30;;;;;;;13.73;6.60;;;8.40;99.90;;;;;;5046455;28;20543;-69
2022/12/19 09:20:58;;;;;;;13.57;6.22;;;8.40;99.90;;;;;;5038565;28;20057;-68
2022/12/19 09:23:28;;;;;;;15.77;7.30;;;8.40;99.90;;;;;;5034903;28;20079;-68
2022/12/19 09:25:55;;;;;;;14.63;7.10;;;8.50;99.90;;;;;;5044117;28;20029;-68
2022/12/19 09:28:21;;;;;;;15.48;6.57;;;8.50;99.90;;;;;;5054449;28;20029;-68
2022/12/19 09:31:03;;;;;;;16.80;7.28;;;8.50;99.90;;;;;;5054697;28;20064;-68
2022/12/19 09:33:30;;;;;;;18.58;7.15;;;8.60;99.90;;;;;;5054490;28;20473;-68
2022/12/19 09:35:56;;;;;;;16.05;6.82;;;8.60;99.90;;;;;;5054532;28;20029;-68
2022/12/19 09:38:24;;;;;;;14.85;6.43;;;8.60;99.90;;;;;;5053149;28;20094;-69
2022/12/19 09:41:12;;;;;;;13.32;5.45;;;8.60;99.90;;;;;;5054304;28;20076;-68
2022/12/19 09:43:57;;;;;;;20.10;9.25;;;8.60;99.90;;;;;;5054112;28;20029;-68
2022/12/19 09:46:34;;;;;;;15.95;6.75;;;8.70;99.90;;;;;;5053460;28;20453;-69
2022/12/19 09:49:00;;;;;;;12.80;5.53;;;8.70;99.90;;;;;;5052848;28;20487;-68
2022/12/19 09:51:35;;;;;;;12.60;6.00;;;8.70;99.90;;;;;;5054375;28;20025;-68
2022/12/19 09:54:25;;;;;;;10.48;5.20;;;8.60;99.90;;;;;;5053848;28;20032;-69
2022/12/19 09:56:56;;;;;;;14.70;6.47;;;8.70;99.90;;;;;;5054188;28;20048;-68
2022/12/19 09:59:38;;;;;;;9.65;4.65;;;8.60;99.90;;;;;;5054049;28;20029;-68
2022/12/19 10:02:12;;;;;;;13.93;6.17;;;8.60;99.90;;;;;;5053578;28;20029;-68
2022/12/19 10:04:53;;;;;;;11.07;5.40;;;8.70;99.90;;;;;;5053899;28;20033;-69
2022/12/19 10:07:20;;;;;;;15.05;6.50;;;8.70;99.90;;;;;;5033529;28;20049;-68
2022/12/19 10:09:46;;;;;;;11.55;5.75;;;8.70;99.90;;;;;;5034052;28;20021;-68
2022/12/19 10:12:20;;;;;;;12.10;5.95;;;8.70;99.90;;;;;;5051659;28;20082;-68
2022/12/19 10:14:52;;;;;;;12.27;6.35;;;8.80;99.90;;;;;;5053833;28;20036;-68
2022/12/19 10:17:30;;;;;;;11.13;5.00;;;8.80;99.90;;;;;;5050344;28;20021;-68
2022/12/19 10:20:01;;;;;;;12.60;5.97;;;8.80;99.90;;;;;;5057919;28;20059;-68
2022/12/19 10:22:47;;;;;;;14.57;7.07;;;8.90;99.90;;;;;;5033500;28;20405;-69
2022/12/19 10:25:15;;;;;;;15.10;7.03;;;8.90;99.90;;;;;;5035407;28;20064;-68
2022/12/19 10:28:02;;;;;;;17.02;8.00;;;9.00;99.90;;;;;;5052011;28;20443;-68
2022/12/19 10:30:35;;;;;;;10.23;5.53;;;9.10;99.90;;;;;;5053236;28;20087;-68
2022/12/19 10:33:25;;;;;;;13.13;6.30;;;9.10;99.90;;;;;;5053395;28;20059;-68
2022/12/19 10:35:55;;;;;;;12.05;5.68;;;9.20;99.90;;;;;;5053450;28;20033;-68
2022/12/19 10:38:35;;;;;;;11.00;5.53;;;9.20;99.90;;;;;;5053486;28;20031;-68
2022/12/19 10:41:29;;;;;;;10.43;5.22;;;9.20;99.90;;;;;;5053203;28;20209;-69
2022/12/19 10:44:01;;;;;;;12.73;5.80;;;9.30;99.90;;;;;;5053062;28;20033;-67
2022/12/19 10:46:50;;;;;;;12.15;5.68;;;9.30;99.90;;;;;;5053096;28;20071;-68
2022/12/19 10:49:21;;;;;;;11.55;5.63;;;9.30;99.90;;;;;;5052652;28;20025;-68
2022/12/19 10:52:01;;;;;;;11.52;5.82;;;9.30;99.90;;;;;;5051652;28;20075;-68
2022/12/19 10:54:38;;;;;;;10.48;4.72;;;9.40;99.90;;;;;;5051987;28;20036;-68
2022/12/19 10:57:20;;;;;;;8.77;4.25;;;9.40;99.90;;;;;;5052483;28;20025;-67
2022/12/19 11:00:16;;;;;;;8.85;4.30;;;9.40;99.90;;;;;;5052733;28;20499;-67
2022/12/19 11:02:45;;;;;;;9.23;4.55;;;9.40;99.90;;;;;;5048650;28;20042;-67
2022/12/19 11:05:22;;;;;;;10.73;5.00;;;9.40;99.90;;;;;;5041228;28;20040;-68
2022/12/19 11:08:05;;;;;;;8.15;4.50;;;9.40;99.90;;;;;;5048274;28;20120;-68
2022/12/19 11:10:48;;;;;;;10.20;5.30;;;9.30;99.90;;;;;;5053031;28;20025;-68
2022/12/19 11:13:32;;;;;;;10.32;4.68;;;9.30;99.90;;;;;;5052059;28;20439;-68
2022/12/19 11:16:00;;;;;;;9.50;4.82;;;9.40;99.90;;;;;;5052826;28;20029;-68
2022/12/19 11:18:40;;;;;;;9.50;4.32;;;9.30;99.90;;;;;;5044127;28;20025;-68
2022/12/19 11:21:12;;;;;;;7.43;4.47;;;9.30;99.90;;;;;;5037430;28;20363;-68
2022/12/19 11:23:59;;;;;;;11.60;5.20;;;9.30;99.90;;;;;;5032338;28;20029;-68
2022/12/19 11:26:42;;;;;;;10.40;4.20;;;9.30;99.90;;;;;;5032200;28;20145;-67
2022/12/19 11:29:22;;;;;;;14.45;6.00;;;9.30;99.90;;;;;;5032403;28;20057;-69
2022/12/19 11:31:55;;;;;;;15.77;5.38;;;9.30;99.90;;;;;;5032642;28;20025;-68
2022/12/19 11:34:23;;;;;;;11.43;4.90;;;9.30;99.90;;;;;;5047375;28;20043;-68
2022/12/19 11:36:51;;;;;;;14.40;5.90;;;9.30;99.90;;;;;;5045722;28;20033;-69
2022/12/19 11:39:30;;;;;;;10.50;4.78;;;9.40;99.90;;;;;;5031587;28;20025;-68
2022/12/19 11:42:00;;;;;;;12.02;4.70;;;9.40;99.90;;;;;;5032492;28;20029;-68
2022/12/19 11:44:47;;;;;;;12.50;5.03;;;9.40;99.90;;;;;;5032112;28;20473;-68
2022/12/19 11:47:32;;;;;;;9.98;5.63;;;9.40;99.90;;;;;;5032482;28;20022;-69
2022/12/19 11:50:07;;;;;;;12.25;5.40;;;9.50;99.90;;;;;;5032368;28;20052;-68
2022/12/19 11:53:14;;;;;;;10.45;5.07;;;9.50;99.90;;;;;;5032013;28;20502;-68
2022/12/19 11:55:45;;;;;;;9.60;4.75;;;9.50;99.90;;;;;;5031012;28;20050;-68
2022/12/19 11:58:11;;;;;;;9.25;5.15;;;9.50;99.90;;;;;;5032276;28;20029;-68
2022/12/19 12:00:43;;;;;;;13.93;5.10;;;9.50;99.90;;;;;;5031911;28;20108;-68
2022/12/19 12:03:34;;;;;;;12.00;5.78;;;9.50;99.90;;;;;;5031822;28;20033;-68
2022/12/19 12:06:03;;;;;;;11.32;6.07;;;9.50;99.90;;;;;;5032396;28;20060;-68
2022/12/19 12:08:37;;;;;;;11.60;4.40;;;9.50;99.90;;;;;;5032469;28;20037;-69
2022/12/19 12:11:28;;;;;;;14.60;6.25;;;9.60;99.90;;;;;;5035703;28;20064;-69
2022/12/19 12:14:20;;;;;;;12.95;5.55;;;9.60;99.90;;;;;;5036327;28;20081;-68
2022/12/19 12:17:16;;;;;;;14.20;5.57;;;9.60;99.90;;;;;;5035774;28;20029;-68
2022/12/19 12:20:02;;;;;;;11.52;5.60;;;9.70;99.90;;;;;;5045970;28;20040;-68
2022/12/19 12:22:47;;;;;;;9.73;5.25;;;9.70;99.90;;;;;;5055715;28;20103;-69
2022/12/19 12:25:29;;;;;;;11.93;4.90;;;9.70;99.90;;;;;;5055824;28;20025;-69
2022/12/19 12:28:14;;;;;;;10.00;5.40;;;9.70;99.90;;;;;;5055762;28;20051;-70
2022/12/19 12:30:51;;;;;;;10.18;5.30;;;9.80;99.90;;;;;;5053781;28;20037;-70
2022/12/19 12:33:29;;;;;;;10.35;4.60;;;9.80;99.90;;;;;;5055814;28;20040;-69
2022/12/19 12:36:00;;;;;;;9.23;4.28;;;9.80;99.90;;;;;;5055665;28;20056;-69
2022/12/19 12:38:45;;;;;;;10.27;4.85;;;9.90;99.90;;;;;;5055571;28;20035;-69
2022/12/19 12:42:02;;;;;;;11.95;6.05;;;9.90;99.90;;;;;;5048931;28;20029;-68
2022/12/19 12:44:12;;;;;;;11.35;4.50;;;9.90;99.90;;;;;;5047833;28;20069;-69
2022/12/19 12:46:43;;;;;;;10.57;5.18;;;9.90;99.90;;;;;;5055221;28;20033;-69
2022/12/19 12:49:25;;;;;;;9.57;4.63;;;9.90;99.90;;;;;;5053404;28;20029;-68
2022/12/19 12:51:51;;;;;;;14.45;6.97;;;9.90;99.90;;;;;;5055491;28;20063;-68
2022/12/19 12:54:17;;;;;;;7.72;4.50;;;9.90;99.90;;;;;;5055183;28;20469;-68
2022/12/19 12:56:44;;;;;;;10.57;5.30;;;9.90;99.90;;;;;;5054848;28;20376;-68
2022/12/19 12:59:25;;;;;;;9.73;4.85;;;9.90;99.90;;;;;;5055229;28;20461;-68
2022/12/19 13:01:58;;;;;;;6.82;4.32;;;9.90;99.90;;;;;;5045789;28;20038;-68
2022/12/19 13:04:32;;;;;;;9.93;4.88;;;9.80;99.90;;;;;;5042471;28;20044;-68
2022/12/19 13:07:33;;;;;;;12.70;5.47;;;9.80;99.90;;;;;;5052648;28;20468;-68
2022/12/19 13:10:27;;;;;;;8.85;3.92;;;9.80;99.90;;;;;;5029178;28;20045;-68